메인 페이지
METAR-TAF:

METAR-TAF

공항 :

바레인 국제공항

바레인, 바레인

위도: 26-16N, 경도: 050-39E, 고도: 2m

현재 날씨관측

예보는 20분 전, 23:00시(UTC)에 발표되었습니다.
북북서5kt
온도 24°C
습도 74%
기압 1017 hPa
시정 10km 이상
1500m 미만 상공 구름 및 적란운 없음

METAR: OBBI 012300Z 33005KT CAVOK 24/19 Q1017 NOSIG

시각: 02:20 (23:20 UTC)

예보

예보는 6 시간 20분 전, 17:00시(UTC)에 발표되었습니다.
예보 대상 시간: 01일 18시부터 03일 00시까지 (UTC)
10kt
시정: 8000m
고도 2500ft 상공 구름 보통
고도 10000ft 상공 구름 많음
확률 30% :
일시적
02일 00시부터 02일 05시까지 (UTC)
시정: 3000m
고도 1000ft 상공 구름 많음
연무
전환 중
02일 16시부터 02일 18시까지 (UTC)
여러 방향의 바람 5kt

TAF: OBBI 011700Z 0118/0300 35010KT 8000 SCT025 BKN100 PROB30 TEMPO 0200/0205 3000 HZ BKN010 BECMG 0216/0218 VRB05KT

4,000개 이상의 공항 관측 자료 및 예보 (METAR 및 TAF 보고).

지도상에서 검색 가능한 기상관측소가 노란 점과 빨간 점으로 표시되어 있습니다.

기상관측소 명을 보려면 표시 위로 마우스를 이동하세요.

날씨 관측과 예보를 보려면 클릭하세요.

지도 변경 : 확대하려면 엑스 표시가 있는 녹색 버튼, 축소하려면 빼기 표시가 있는 녹색 버튼, 다음 페이지의 지도를 보려면 녹색 화살표를 클릭하세요.


METAR-TAF: